createdAt,value
2022-07-25T00:00:23.355Z,100.00
2022-07-25T00:03:18.516Z,100.00
2022-07-25T00:06:13.480Z,100.00
2022-07-25T00:09:10.454Z,100.00
2022-07-25T00:12:02.427Z,100.00
2022-07-25T00:14:56.695Z,100.00
2022-07-25T00:17:49.719Z,100.00
2022-07-25T00:20:41.622Z,100.00
2022-07-25T00:23:33.537Z,100.00
2022-07-25T00:26:25.671Z,100.00
2022-07-25T00:29:17.836Z,100.00
2022-07-25T00:32:10.531Z,100.00
2022-07-25T00:35:04.012Z,100.00
2022-07-25T00:37:56.465Z,100.00
2022-07-25T00:40:54.177Z,100.00
2022-07-25T00:43:48.714Z,100.00
2022-07-25T00:46:42.640Z,100.00
2022-07-25T00:49:34.722Z,100.00
2022-07-25T00:52:27.592Z,100.00
2022-07-25T00:55:20.481Z,100.00
2022-07-25T00:58:12.865Z,100.00
2022-07-25T01:01:06.281Z,100.00
2022-07-25T01:03:58.611Z,100.00
2022-07-25T01:06:50.984Z,100.00
2022-07-25T01:09:43.141Z,100.00
2022-07-25T01:12:45.416Z,100.00
2022-07-25T01:15:37.753Z,100.00
2022-07-25T01:18:31.981Z,100.00
2022-07-25T01:21:24.659Z,100.00
2022-07-25T01:24:17.181Z,100.00
2022-07-25T01:27:09.674Z,100.00
2022-07-25T01:30:13.893Z,100.00
2022-07-25T01:33:06.770Z,100.00
2022-07-25T01:35:59.356Z,100.00
2022-07-25T01:38:51.932Z,100.00
2022-07-25T01:41:47.171Z,100.00
2022-07-25T01:44:39.476Z,100.00
2022-07-25T01:47:32.126Z,100.00
2022-07-25T01:50:24.394Z,100.00
2022-07-25T01:53:17.216Z,100.00
2022-07-25T01:56:13.307Z,100.00
2022-07-25T01:59:05.984Z,100.00
2022-07-25T02:01:58.833Z,100.00
2022-07-25T02:04:51.093Z,100.00
2022-07-25T02:07:43.476Z,100.00
2022-07-25T02:10:36.555Z,100.00
2022-07-25T02:13:29.775Z,100.00
2022-07-25T02:16:29.228Z,100.00
2022-07-25T02:19:22.640Z,100.00
2022-07-25T02:22:14.853Z,100.00
2022-07-25T02:25:08.136Z,100.00
2022-07-25T02:28:00.397Z,100.00
2022-07-25T02:30:53.505Z,100.00
2022-07-25T02:33:45.502Z,100.00
2022-07-25T02:36:37.813Z,100.00
2022-07-25T02:39:31.028Z,100.00
2022-07-25T02:42:24.022Z,100.00
2022-07-25T02:45:16.657Z,100.00
2022-07-25T02:48:10.062Z,100.00
2022-07-25T02:51:02.397Z,100.00
2022-07-25T02:53:57.762Z,100.00
2022-07-25T02:56:51.144Z,100.00
2022-07-25T02:59:42.827Z,100.00
2022-07-25T03:02:36.092Z,100.00
2022-07-25T03:05:28.533Z,100.00
2022-07-25T03:08:20.533Z,100.00
2022-07-25T03:11:12.546Z,100.00
2022-07-25T03:14:05.083Z,100.00
2022-07-25T03:16:57.745Z,100.00
2022-07-25T03:19:50.128Z,100.00
2022-07-25T03:22:42.488Z,100.00
2022-07-25T03:25:35.012Z,100.00
2022-07-25T03:28:26.975Z,100.00
2022-07-25T03:31:19.265Z,100.00
2022-07-25T03:34:12.129Z,100.00
2022-07-25T03:37:04.672Z,100.00
2022-07-25T03:39:57.226Z,100.00
2022-07-25T03:42:50.343Z,100.00
2022-07-25T03:45:42.758Z,100.00
2022-07-25T03:48:35.841Z,100.00
2022-07-25T03:51:28.563Z,100.00
2022-07-25T03:54:21.044Z,100.00
2022-07-25T03:57:13.101Z,100.00
2022-07-25T04:00:07.096Z,100.00
2022-07-25T04:02:59.296Z,100.00
2022-07-25T04:05:51.462Z,100.00
2022-07-25T04:08:44.393Z,100.00
2022-07-25T04:11:36.738Z,100.00
2022-07-25T04:14:28.980Z,100.00
2022-07-25T04:17:21.609Z,100.00
2022-07-25T04:20:15.611Z,100.00
2022-07-25T04:23:08.552Z,100.00
2022-07-25T04:26:01.319Z,100.00
2022-07-25T04:28:54.030Z,100.00
2022-07-25T04:31:45.903Z,100.00
2022-07-25T04:34:38.318Z,100.00
2022-07-25T04:37:30.507Z,100.00
2022-07-25T04:40:25.404Z,100.00
2022-07-25T04:43:17.901Z,100.00
2022-07-25T04:46:10.170Z,100.00
2022-07-25T04:49:02.399Z,100.00
2022-07-25T04:51:54.772Z,100.00
2022-07-25T04:54:46.996Z,100.00
2022-07-25T04:57:39.535Z,100.00
2022-07-25T05:00:31.858Z,100.00
2022-07-25T05:03:24.174Z,100.00
2022-07-25T05:06:16.243Z,100.00
2022-07-25T05:09:09.128Z,100.00
2022-07-25T05:12:01.154Z,100.00
2022-07-25T05:14:54.408Z,100.00
2022-07-25T05:17:46.718Z,100.00
2022-07-25T05:20:39.592Z,100.00
2022-07-25T05:23:31.878Z,100.00
2022-07-25T05:26:24.173Z,100.00
2022-07-25T05:29:16.246Z,100.00
2022-07-25T05:32:09.218Z,100.00
2022-07-25T05:35:02.056Z,100.00
2022-07-25T05:37:54.449Z,100.00
2022-07-25T05:40:46.933Z,100.00
2022-07-25T05:43:39.790Z,100.00
2022-07-25T05:46:33.754Z,100.00
2022-07-25T05:49:26.623Z,100.00
2022-07-25T05:52:18.676Z,100.00
2022-07-25T05:55:13.106Z,100.00
2022-07-25T05:58:05.025Z,100.00
2022-07-25T06:00:57.679Z,100.00
2022-07-25T06:03:50.638Z,100.00
2022-07-25T06:06:42.621Z,100.00
2022-07-25T06:09:35.398Z,100.00
2022-07-25T06:12:27.685Z,100.00
2022-07-25T06:15:22.861Z,100.00
2022-07-25T06:18:19.287Z,100.00
2022-07-25T06:21:11.754Z,100.00
2022-07-25T06:24:05.241Z,100.00
2022-07-25T06:26:57.719Z,100.00
2022-07-25T06:29:50.535Z,100.00
2022-07-25T06:32:43.342Z,100.00
2022-07-25T06:35:35.544Z,100.00
2022-07-25T06:38:27.398Z,100.00
2022-07-25T06:41:19.848Z,100.00
2022-07-25T06:44:13.295Z,100.00
2022-07-25T06:47:06.037Z,100.00
2022-07-25T06:49:58.777Z,100.00
2022-07-25T06:52:51.303Z,100.00
2022-07-25T06:55:43.447Z,100.00
2022-07-25T06:58:36.325Z,100.00
2022-07-25T07:01:29.442Z,100.00
2022-07-25T07:04:22.088Z,100.00
2022-07-25T07:07:13.837Z,100.00
2022-07-25T07:10:08.539Z,100.00
2022-07-25T07:13:12.642Z,100.00
2022-07-25T07:16:06.226Z,100.00
2022-07-25T07:18:59.044Z,100.00
2022-07-25T07:21:51.742Z,100.00
2022-07-25T07:24:44.169Z,100.00
2022-07-25T07:27:36.570Z,100.00
2022-07-25T07:30:58.663Z,100.00
2022-07-25T07:33:42.679Z,100.00
2022-07-25T07:36:34.618Z,100.00
2022-07-25T07:39:27.432Z,100.00
2022-07-25T07:42:19.188Z,100.00
2022-07-25T07:45:26.844Z,100.00
2022-07-25T07:48:19.008Z,100.00
2022-07-25T07:51:12.101Z,100.00
2022-07-25T07:54:21.603Z,100.00
2022-07-25T07:57:15.148Z,100.00
2022-07-25T08:00:13.490Z,100.00
2022-07-25T08:03:09.790Z,100.00
2022-07-25T08:06:03.189Z,100.00
2022-07-25T08:08:54.971Z,100.00
2022-07-25T08:11:46.892Z,100.00
2022-07-25T08:14:39.025Z,100.00
2022-07-25T08:17:31.705Z,100.00
2022-07-25T08:20:40.173Z,100.00
2022-07-25T08:23:34.974Z,100.00
2022-07-25T08:26:28.285Z,100.00
2022-07-25T08:29:25.009Z,100.00
2022-07-25T08:32:21.221Z,100.00
2022-07-25T08:35:15.386Z,100.00
2022-07-25T08:38:08.194Z,100.00
2022-07-25T08:41:03.342Z,100.00
2022-07-25T08:43:56.254Z,100.00
2022-07-25T08:46:49.800Z,100.00
2022-07-25T08:49:43.071Z,100.00
2022-07-25T08:52:37.400Z,100.00
2022-07-25T08:55:29.301Z,100.00
2022-07-25T08:58:22.345Z,100.00
2022-07-25T09:01:14.556Z,99.59
2022-07-25T09:04:09.744Z,97.66
2022-07-25T09:07:08.241Z,97.35
2022-07-25T09:10:01.825Z,97.45
2022-07-25T09:12:59.958Z,97.29
2022-07-25T09:15:54.188Z,96.98
2022-07-25T09:18:46.760Z,96.08
2022-07-25T09:21:40.069Z,96.38
2022-07-25T09:24:33.895Z,94.88
2022-07-25T09:27:26.321Z,93.21
2022-07-25T09:30:21.776Z,93.01
2022-07-25T09:33:14.387Z,92.78
2022-07-25T09:36:14.620Z,91.25
2022-07-25T09:39:07.242Z,90.53
2022-07-25T09:41:59.547Z,90.33
2022-07-25T09:45:05.146Z,90.14
2022-07-25T09:48:00.085Z,88.80
2022-07-25T09:50:53.222Z,88.23
2022-07-25T09:53:45.864Z,88.23
2022-07-25T09:56:38.487Z,87.00
2022-07-25T09:59:30.395Z,85.18
2022-07-25T10:02:35.358Z,84.60
2022-07-25T10:05:41.902Z,83.23
2022-07-25T10:08:38.451Z,82.44
2022-07-25T10:11:32.107Z,82.97
2022-07-25T10:14:24.495Z,82.59
2022-07-25T10:17:24.767Z,80.66
2022-07-25T10:20:17.774Z,78.76
2022-07-25T10:23:24.608Z,77.78
2022-07-25T10:26:19.805Z,77.12
2022-07-25T10:29:15.548Z,76.39
2022-07-25T10:32:13.933Z,74.16
2022-07-25T10:35:18.017Z,75.14
2022-07-25T10:38:10.702Z,74.17
2022-07-25T10:41:06.091Z,73.66
2022-07-25T10:44:02.183Z,73.03
2022-07-25T10:47:06.157Z,73.76
2022-07-25T10:53:13.884Z,70.62
2022-07-25T10:56:11.753Z,69.50
2022-07-25T10:59:05.423Z,68.26
2022-07-25T11:01:58.916Z,67.61
2022-07-25T11:05:03.322Z,67.56
2022-07-25T11:08:21.607Z,66.67
2022-07-25T11:11:10.596Z,67.24
2022-07-25T11:14:03.441Z,66.52
2022-07-25T11:16:57.483Z,66.15
2022-07-25T11:19:57.685Z,65.45
2022-07-25T11:22:55.430Z,66.04
2022-07-25T11:25:47.954Z,64.54
2022-07-25T11:28:49.310Z,62.93
2022-07-25T11:31:42.082Z,63.93
2022-07-25T11:34:36.237Z,63.92
2022-07-25T11:37:29.533Z,62.83
2022-07-25T11:40:23.492Z,62.39
2022-07-25T11:43:23.099Z,60.59
2022-07-25T11:46:15.780Z,62.07
2022-07-25T11:49:09.475Z,62.52
2022-07-25T11:52:01.611Z,59.62
2022-07-25T11:54:58.630Z,58.98
2022-07-25T11:57:51.443Z,57.72
2022-07-25T12:00:47.078Z,57.53
2022-07-25T12:03:42.770Z,55.91
2022-07-25T12:06:35.679Z,58.38
2022-07-25T12:09:27.957Z,58.96
2022-07-25T12:12:20.581Z,59.28
2022-07-25T12:15:15.330Z,58.91
2022-07-25T12:18:09.600Z,56.87
2022-07-25T12:21:01.777Z,57.67
2022-07-25T12:23:54.067Z,57.71
2022-07-25T12:26:45.859Z,58.43
2022-07-25T12:29:37.927Z,56.88
2022-07-25T12:32:31.750Z,53.27
2022-07-25T12:35:24.683Z,53.70
2022-07-25T12:38:16.893Z,53.01
2022-07-25T12:41:17.477Z,52.28
2022-07-25T12:44:13.548Z,52.68
2022-07-25T12:47:06.190Z,51.64
2022-07-25T12:49:58.745Z,52.20
2022-07-25T12:52:51.395Z,51.84
2022-07-25T12:55:44.169Z,50.78
2022-07-25T12:58:36.097Z,50.77
2022-07-25T13:01:28.419Z,48.88
2022-07-25T13:04:20.701Z,49.70
2022-07-25T13:07:14.420Z,50.34
2022-07-25T13:10:10.339Z,50.30
2022-07-25T13:13:02.377Z,50.09
2022-07-25T13:15:54.772Z,50.36
2022-07-25T13:18:47.006Z,48.60
2022-07-25T13:21:39.502Z,48.19
2022-07-25T13:24:31.625Z,46.86
2022-07-25T13:27:24.739Z,46.62
2022-07-25T13:30:17.233Z,47.51
2022-07-25T13:33:11.067Z,48.21
2022-07-25T13:36:03.532Z,47.81
2022-07-25T13:38:56.745Z,47.85
2022-07-25T13:41:49.257Z,47.47
2022-07-25T13:44:42.393Z,47.20
2022-07-25T13:47:36.996Z,46.92
2022-07-25T13:50:28.835Z,47.24
2022-07-25T13:53:22.870Z,47.48
2022-07-25T13:56:16.381Z,47.15
2022-07-25T13:59:08.612Z,47.44
2022-07-25T14:02:00.979Z,47.45
2022-07-25T14:04:53.456Z,47.22
2022-07-25T14:07:45.824Z,47.71
2022-07-25T14:10:38.270Z,47.40
2022-07-25T14:13:30.703Z,47.30
2022-07-25T14:16:24.094Z,47.97
2022-07-25T14:19:17.920Z,47.71
2022-07-25T14:22:10.567Z,47.57
2022-07-25T14:25:03.325Z,48.33
2022-07-25T14:27:56.009Z,47.90
2022-07-25T14:30:48.240Z,47.31
2022-07-25T14:33:41.399Z,48.31
2022-07-25T14:36:33.850Z,48.68
2022-07-25T14:39:26.291Z,48.90
2022-07-25T14:42:18.923Z,48.06
2022-07-25T14:45:15.098Z,48.38
2022-07-25T14:48:08.886Z,48.99
2022-07-25T14:51:01.590Z,48.94
2022-07-25T14:53:54.469Z,48.80
2022-07-25T14:56:46.691Z,48.20
2022-07-25T14:59:38.881Z,48.76
2022-07-25T15:02:31.340Z,48.61
2022-07-25T15:05:23.536Z,48.70
2022-07-25T15:08:16.157Z,48.08
2022-07-25T15:11:08.630Z,46.49
2022-07-25T15:14:03.773Z,48.08
2022-07-25T15:16:55.837Z,48.22
2022-07-25T15:19:48.182Z,48.44
2022-07-25T15:22:40.039Z,48.05
2022-07-25T15:26:00.570Z,48.48
2022-07-25T15:28:45.019Z,48.72
2022-07-25T15:31:39.169Z,48.20
2022-07-25T15:34:32.950Z,47.93
2022-07-25T15:37:25.394Z,47.71
2022-07-25T15:40:17.934Z,47.58
2022-07-25T15:43:11.922Z,47.71
2022-07-25T15:46:04.599Z,48.03
2022-07-25T15:48:58.130Z,48.05
2022-07-25T15:51:50.199Z,48.15
2022-07-25T15:54:42.755Z,47.99
2022-07-25T15:57:34.583Z,47.50
2022-07-25T16:00:29.651Z,47.69
2022-07-25T16:03:24.357Z,49.05
2022-07-25T16:06:21.126Z,49.60
2022-07-25T16:09:14.067Z,48.92
2022-07-25T16:12:06.829Z,49.06
2022-07-25T16:14:59.838Z,48.49
2022-07-25T16:17:53.849Z,48.32
2022-07-25T16:20:46.166Z,49.04
2022-07-25T16:23:43.761Z,49.83
2022-07-25T16:26:37.808Z,50.00
2022-07-25T16:29:30.887Z,49.96
2022-07-25T16:32:24.121Z,50.52
2022-07-25T16:35:16.227Z,50.58
2022-07-25T16:38:09.753Z,51.12
2022-07-25T16:41:02.047Z,51.87
2022-07-25T16:43:53.346Z,52.10
2022-07-25T16:46:46.676Z,52.36
2022-07-25T16:49:39.184Z,52.89
2022-07-25T16:52:31.679Z,53.39
2022-07-25T16:55:24.458Z,53.41
2022-07-25T16:58:17.142Z,53.73
2022-07-25T17:01:09.260Z,54.42
2022-07-25T17:04:02.613Z,55.06
2022-07-25T17:06:55.610Z,55.94
2022-07-25T17:09:47.959Z,56.45
2022-07-25T17:12:41.972Z,57.24
2022-07-25T17:15:34.646Z,58.62
2022-07-25T17:18:26.925Z,60.79
2022-07-25T17:21:21.872Z,61.32
2022-07-25T17:24:14.577Z,62.65
2022-07-25T17:27:07.769Z,64.33
2022-07-25T17:30:00.431Z,65.36
2022-07-25T17:32:53.828Z,66.92
2022-07-25T17:35:46.228Z,67.76
2022-07-25T17:38:38.705Z,68.73
2022-07-25T17:41:30.965Z,69.21
2022-07-25T17:44:22.938Z,70.48
2022-07-25T17:47:14.775Z,72.11
2022-07-25T17:50:09.018Z,72.96
2022-07-25T17:53:02.475Z,73.68
2022-07-25T17:55:55.018Z,75.48
2022-07-25T17:58:46.944Z,76.56
2022-07-25T18:01:40.328Z,77.26
2022-07-25T18:04:32.681Z,77.50
2022-07-25T18:07:25.357Z,77.67
2022-07-25T18:10:18.603Z,79.11
2022-07-25T18:13:10.855Z,81.68
2022-07-25T18:16:03.343Z,82.79
2022-07-25T18:18:55.154Z,83.46
2022-07-25T18:21:48.156Z,83.35
2022-07-25T18:24:41.025Z,83.60
2022-07-25T18:27:33.521Z,83.98
2022-07-25T18:30:29.153Z,84.80
2022-07-25T18:33:22.401Z,86.66
2022-07-25T18:36:15.155Z,88.16
2022-07-25T18:39:07.739Z,89.20
2022-07-25T18:42:00.240Z,90.00
2022-07-25T18:44:52.417Z,90.73
2022-07-25T18:47:45.310Z,93.42
2022-07-25T18:50:37.503Z,95.55
2022-07-25T18:53:29.589Z,96.24
2022-07-25T18:56:22.165Z,98.00
2022-07-25T18:59:13.791Z,98.83
2022-07-25T19:02:07.057Z,99.38
2022-07-25T19:04:59.998Z,99.45
2022-07-25T19:07:52.759Z,99.36
2022-07-25T19:10:44.999Z,99.51
2022-07-25T19:13:49.513Z,100.00
2022-07-25T19:16:43.916Z,100.00
2022-07-25T19:19:36.249Z,100.00
2022-07-25T19:22:28.533Z,100.00
2022-07-25T19:25:21.593Z,100.00
2022-07-25T19:28:15.653Z,100.00
2022-07-25T19:31:08.849Z,100.00
2022-07-25T19:34:01.392Z,100.00
2022-07-25T19:36:55.976Z,100.00
2022-07-25T19:39:49.287Z,100.00
2022-07-25T19:42:42.134Z,100.00
2022-07-25T19:45:34.787Z,100.00
2022-07-25T19:48:27.448Z,100.00
2022-07-25T19:51:19.483Z,100.00
2022-07-25T19:54:11.975Z,100.00
2022-07-25T19:57:05.195Z,100.00
2022-07-25T19:59:57.672Z,100.00
2022-07-25T20:02:50.505Z,100.00
2022-07-25T20:05:43.050Z,100.00
2022-07-25T20:08:35.335Z,100.00
2022-07-25T20:11:28.257Z,100.00
2022-07-25T20:14:20.238Z,100.00
2022-07-25T20:17:12.552Z,100.00
2022-07-25T20:20:05.872Z,100.00
2022-07-25T20:22:58.436Z,100.00
2022-07-25T20:25:50.402Z,100.00
2022-07-25T20:28:42.640Z,100.00
2022-07-25T20:31:35.316Z,100.00
2022-07-25T20:34:27.818Z,100.00
2022-07-25T20:37:21.087Z,100.00
2022-07-25T20:40:16.254Z,100.00
2022-07-25T20:43:09.178Z,100.00
2022-07-25T20:46:03.151Z,100.00
2022-07-25T20:48:59.200Z,100.00
2022-07-25T20:51:54.598Z,100.00
2022-07-25T20:54:47.366Z,100.00
2022-07-25T20:57:40.177Z,100.00
2022-07-25T21:00:32.894Z,100.00
2022-07-25T21:03:25.115Z,100.00
2022-07-25T21:06:17.683Z,100.00
2022-07-25T21:09:10.940Z,100.00
2022-07-25T21:12:04.645Z,100.00
2022-07-25T21:14:57.619Z,100.00
2022-07-25T21:17:49.579Z,100.00
2022-07-25T21:20:43.126Z,100.00
2022-07-25T21:23:35.656Z,100.00
2022-07-25T21:26:27.853Z,100.00
2022-07-25T21:29:19.646Z,100.00
2022-07-25T21:32:13.959Z,100.00
2022-07-25T21:35:06.689Z,100.00
2022-07-25T21:37:58.861Z,100.00
2022-07-25T21:40:51.524Z,100.00
2022-07-25T21:43:44.518Z,100.00
2022-07-25T21:46:36.678Z,100.00
2022-07-25T21:49:46.814Z,100.00
2022-07-25T21:52:39.968Z,100.00
2022-07-25T21:55:32.506Z,100.00
2022-07-25T21:58:24.674Z,100.00
2022-07-25T22:01:17.893Z,100.00
2022-07-25T22:04:10.391Z,100.00
2022-07-25T22:07:02.543Z,100.00
2022-07-25T22:09:54.834Z,100.00
2022-07-25T22:12:47.000Z,100.00
2022-07-25T22:15:39.155Z,100.00
2022-07-25T22:18:31.471Z,100.00
2022-07-25T22:21:23.762Z,100.00
2022-07-25T22:24:15.958Z,100.00
2022-07-25T22:27:08.424Z,100.00
2022-07-25T22:30:00.354Z,100.00
2022-07-25T22:32:53.484Z,100.00
2022-07-25T22:35:45.778Z,100.00
2022-07-25T22:38:39.241Z,100.00
2022-07-25T22:41:31.438Z,100.00
2022-07-25T22:44:23.187Z,100.00
2022-07-25T22:47:15.495Z,100.00
2022-07-25T22:50:11.867Z,100.00
2022-07-25T22:53:04.471Z,100.00
2022-07-25T22:55:56.946Z,100.00
2022-07-25T22:58:50.610Z,100.00
2022-07-25T23:01:43.530Z,100.00
2022-07-25T23:04:35.593Z,100.00
2022-07-25T23:07:28.283Z,100.00
2022-07-25T23:10:20.772Z,100.00
2022-07-25T23:13:13.246Z,100.00
2022-07-25T23:16:05.745Z,100.00
2022-07-25T23:19:04.390Z,100.00
2022-07-25T23:21:56.556Z,100.00
2022-07-25T23:24:48.914Z,100.00
2022-07-25T23:27:42.567Z,100.00
2022-07-25T23:30:40.058Z,100.00
2022-07-25T23:33:32.735Z,100.00
2022-07-25T23:36:25.283Z,100.00
2022-07-25T23:39:17.985Z,100.00
2022-07-25T23:42:10.037Z,100.00
2022-07-25T23:45:03.596Z,100.00
2022-07-25T23:47:59.304Z,100.00
2022-07-25T23:50:51.677Z,100.00
2022-07-25T23:53:43.401Z,100.00
2022-07-25T23:56:36.024Z,100.00
2022-07-25T23:59:27.932Z,100.00
